Time;durP1;ratioP1;P1;durP2;ratioP2;P2;SDS_P1;SDS_P2;PMS_P1;PMS_P2;Temp;Humidity;BMP_temperature;BMP_pressure;BME280_temperature;BME280_humidity;BME280_pressure;Samples;Min_cycle;Max_cycle;Signal;HPM_P1;HPM_P2
2022/12/08 00:00:17;;;;;;;;;;;;;;;;;;5025639;28;20313;-55
2022/12/08 00:02:43;;;;;;;;;;;;;;;;;;5025261;28;19925;-57
2022/12/08 00:10:56;;;;;;;;;;;;;;;;;;5025869;28;20008;-56
2022/12/08 00:13:22;;;;;;;;;;;;;;;;;;5025679;28;19983;-56
2022/12/08 00:15:48;;;;;;;;;;;;;;;;;;5025629;28;20508;-55
2022/12/08 00:18:14;;;;;;;;;;;;;;;;;;5024929;28;20394;-52
2022/12/08 00:20:40;;;;;;;;;;;;;;;;;;5026026;28;19978;-55
2022/12/08 00:23:06;;;;;;;;;;;;;;;;;;5025193;28;19971;-54
2022/12/08 00:25:32;;;;;;;;;;;;;;;;;;5025334;28;20312;-56
2022/12/08 00:27:58;;;;;;;;;;;;;;;;;;5025776;28;19925;-54
2022/12/08 00:30:24;;;;;;;;;;;;;;;;;;5025334;28;20021;-54
2022/12/08 00:32:50;;;;;;;;;;;;;;;;;;5024618;28;19983;-54
2022/12/08 00:35:16;;;;;;;;;;;;;;;;;;5023604;28;19925;-54
2022/12/08 00:37:42;;;;;;;;;;;;;;;;;;5025303;28;20348;-57
2022/12/08 00:40:08;;;;;;;;;;;;;;;;;;5025431;28;19925;-54
2022/12/08 00:42:34;;;;;;;;;;;;;;;;;;5025146;28;19933;-56
2022/12/08 00:45:00;;;;;;;;;;;;;;;;;;5025416;28;20406;-56
2022/12/08 00:47:26;;;;;;;;;;;;;;;;;;5025798;28;20024;-56
2022/12/08 00:49:52;;;;;;;;;;;;;;;;;;5024470;28;20354;-56
2022/12/08 00:52:18;;;;;;;;;;;;;;;;;;5024804;28;19925;-57
2022/12/08 00:54:44;;;;;;;;;;;;;;;;;;5025133;28;19932;-57
2022/12/08 00:57:10;;;;;;;;;;;;;;;;;;5025434;28;20367;-58
2022/12/08 00:59:36;;;;;;;;;;;;;;;;;;5024580;28;19932;-54
2022/12/08 01:02:02;;;;;;;;;;;;;;;;;;5025298;28;19925;-56
2022/12/08 01:04:28;;;;;;;;;;;;;;;;;;5022570;28;19925;-57
2022/12/08 01:06:54;;;;;;;;;;;;;;;;;;5022378;28;20433;-53
2022/12/08 01:09:20;;;;;;;;;;;;;;;;;;5024975;28;19928;-54
2022/12/08 01:11:46;;;;;;;;;;;;;;;;;;5024993;28;19925;-53
2022/12/08 01:14:12;;;;;;;;;;;;;;;;;;5024601;28;19971;-58
2022/12/08 01:16:40;;;;;;;;;;;;;;;;;;5024673;28;19925;-54
2022/12/08 01:19:06;;;;;;;;;;;;;;;;;;5024160;28;19979;-56
2022/12/08 01:21:32;;;;;;;;;;;;;;;;;;5027558;28;19929;-57
2022/12/08 01:23:58;;;;;;;;;;;;;;;;;;5026876;28;19948;-54
2022/12/08 01:26:24;;;;;;;;;;;;;;;;;;5028489;28;20302;-58
2022/12/08 01:28:50;;;;;;;;;;;;;;;;;;5028333;28;19932;-56
2022/12/08 01:31:16;;;;;;;;;;;;;;;;;;5028206;28;19925;-54
2022/12/08 01:33:42;;;;;;;;;;;;;;;;;;5027391;28;20014;-56
2022/12/08 01:36:08;;;;;;;;;;;;;;;;;;5027889;28;19971;-55
2022/12/08 01:38:34;;;;;;;;;;;;;;;;;;5027888;28;20007;-57
2022/12/08 01:41:00;;;;;;;;;;;;;;;;;;5026708;28;20075;-57
2022/12/08 01:43:26;;;;;;;;;;;;;;;;;;5028862;28;19948;-57
2022/12/08 01:45:52;;;;;;;;;;;;;;;;;;5027870;28;20398;-55
2022/12/08 01:48:18;;;;;;;;;;;;;;;;;;5027087;28;19925;-57
2022/12/08 01:50:44;;;;;;;;;;;;;;;;;;5027616;28;20034;-52
2022/12/08 01:53:10;;;;;;;;;;;;;;;;;;5027963;28;19983;-56
2022/12/08 01:55:36;;;;;;;;;;;;;;;;;;5027149;28;19943;-56
2022/12/08 01:58:02;;;;;;;;;;;;;;;;;;5028232;28;19952;-56
2022/12/08 02:00:28;;;;;;;;;;;;;;;;;;5028304;28;20501;-53
2022/12/08 02:02:54;;;;;;;;;;;;;;;;;;5025848;28;19926;-55
2022/12/08 02:05:20;;;;;;;;;;;;;;;;;;5027459;28;19931;-55
2022/12/08 02:07:46;;;;;;;;;;;;;;;;;;5114119;22;19933;-56
2022/12/08 02:10:12;;;;;;;;;;;;;;;;;;5067677;28;19924;-56
2022/12/08 02:12:38;;;;;;;;;;;;;;;;;;5067630;28;20258;-56
2022/12/08 02:15:04;;;;;;;;;;;;;;;;;;5067292;28;19928;-55
2022/12/08 02:17:30;;;;;;;;;;;;;;;;;;5066755;28;19928;-56
2022/12/08 02:19:56;;;;;;;;;;;;;;;;;;5065898;28;20223;-57
2022/12/08 02:22:22;;;;;;;;;;;;;;;;;;5066462;28;19986;-55
2022/12/08 02:24:48;;;;;;;;;;;;;;;;;;5063531;28;19924;-55
2022/12/08 02:27:14;;;;;;;;;;;;;;;;;;5067333;28;19933;-55
2022/12/08 02:29:40;;;;;;;;;;;;;;;;;;5067112;28;19920;-56
2022/12/08 02:32:06;;;;;;;;;;;;;;;;;;5066282;28;20381;-56
2022/12/08 02:34:32;;;;;;;;;;;;;;;;;;5066457;28;19932;-56
2022/12/08 02:36:58;;;;;;;;;;;;;;;;;;5067555;28;20281;-56
2022/12/08 02:39:24;;;;;;;;;;;;;;;;;;5067052;28;20011;-56
2022/12/08 02:41:50;;;;;;;;;;;;;;;;;;5067019;28;19928;-52
2022/12/08 02:44:16;;;;;;;;;;;;;;;;;;5066746;28;20336;-56
2022/12/08 02:46:42;;;;;;;;;;;;;;;;;;5066628;28;19932;-53
2022/12/08 02:49:08;;;;;;;;;;;;;;;;;;5065993;28;19932;-56
2022/12/08 02:51:34;;;;;;;;;;;;;;;;;;5066515;28;20420;-53
2022/12/08 02:54:00;;;;;;;;;;;;;;;;;;5066340;28;19967;-56
2022/12/08 02:56:26;;;;;;;;;;;;;;;;;;5066956;28;20015;-55
2022/12/08 02:58:52;;;;;;;;;;;;;;;;;;5066057;28;20373;-56
2022/12/08 03:01:18;;;;;;;;;;;;;;;;;;5066423;28;20039;-56
2022/12/08 03:03:44;;;;;;;;;;;;;;;;;;5065730;28;20016;-56
2022/12/08 03:06:10;;;;;;;;;;;;;;;;;;5066448;28;19920;-56
2022/12/08 03:08:36;;;;;;;;;;;;;;;;;;5066071;28;21742;-56
2022/12/08 03:11:02;;;;;;;;;;;;;;;;;;5066354;28;19928;-56
2022/12/08 03:13:28;;;;;;;;;;;;;;;;;;5066745;28;20301;-56
2022/12/08 03:15:54;;;;;;;;;;;;;;;;;;5066954;28;20417;-56
2022/12/08 03:18:20;;;;;;;;;;;;;;;;;;5065130;28;19929;-56
2022/12/08 03:20:46;;;;;;;;;;;;;;;;;;5065677;28;19932;-56
2022/12/08 03:23:13;;;;;;;;;;;;;;;;;;5066218;28;19920;-56
2022/12/08 03:25:39;;;;;;;;;;;;;;;;;;5065986;28;19924;-56
2022/12/08 03:28:05;;;;;;;;;;;;;;;;;;5063554;28;20320;-55
2022/12/08 03:30:31;;;;;;;;;;;;;;;;;;5065398;28;20338;-55
2022/12/08 03:32:57;;;;;;;;;;;;;;;;;;5065885;28;20011;-56
2022/12/08 03:35:23;;;;;;;;;;;;;;;;;;5063011;28;19939;-56
2022/12/08 03:37:50;;;;;;;;;;;;;;;;;;5065689;28;20405;-55
2022/12/08 03:40:16;;;;;;;;;;;;;;;;;;5066074;28;19978;-55
2022/12/08 03:42:42;;;;;;;;;;;;;;;;;;5065161;28;19921;-54
2022/12/08 03:45:08;;;;;;;;;;;;;;;;;;5065594;28;19947;-56
2022/12/08 03:47:34;;;;;;;;;;;;;;;;;;5064562;28;19932;-55
2022/12/08 03:50:00;;;;;;;;;;;;;;;;;;5066126;28;20613;-54
2022/12/08 03:52:26;;;;;;;;;;;;;;;;;;5065875;28;19938;-52
2022/12/08 03:54:52;;;;;;;;;;;;;;;;;;5065530;28;19932;-56
2022/12/08 03:57:18;;;;;;;;;;;;;;;;;;5065474;28;19928;-55
2022/12/08 03:59:44;;;;;;;;;;;;;;;;;;5065293;28;19925;-56
2022/12/08 04:02:10;;;;;;;;;;;;;;;;;;5064995;28;19932;-55
2022/12/08 04:04:36;;;;;;;;;;;;;;;;;;5065295;28;20375;-56
2022/12/08 04:07:02;;;;;;;;;;;;;;;;;;5065529;28;19925;-55
2022/12/08 04:09:28;;;;;;;;;;;;;;;;;;5065754;28;19932;-56
2022/12/08 04:11:54;;;;;;;;;;;;;;;;;;5065682;28;19931;-55
2022/12/08 04:14:20;;;;;;;;;;;;;;;;;;5064987;28;20401;-55
2022/12/08 04:16:46;;;;;;;;;;;;;;;;;;5064998;28;19977;-56
2022/12/08 04:19:12;;;;;;;;;;;;;;;;;;5064700;28;19990;-55
2022/12/08 04:21:38;;;;;;;;;;;;;;;;;;5063683;28;20385;-56
2022/12/08 04:24:04;;;;;;;;;;;;;;;;;;5065226;28;19932;-56
2022/12/08 04:26:30;;;;;;;;;;;;;;;;;;5065116;28;19939;-56
2022/12/08 04:28:56;;;;;;;;;;;;;;;;;;5065265;28;19932;-55
2022/12/08 04:31:22;;;;;;;;;;;;;;;;;;5065540;28;20558;-56
2022/12/08 04:33:48;;;;;;;;;;;;;;;;;;5064289;28;19936;-55
2022/12/08 04:36:14;;;;;;;;;;;;;;;;;;5064799;28;19928;-56
2022/12/08 04:38:40;;;;;;;;;;;;;;;;;;5064508;28;19928;-56
2022/12/08 04:41:06;;;;;;;;;;;;;;;;;;5065263;28;20254;-56
2022/12/08 04:43:32;;;;;;;;;;;;;;;;;;5063939;28;19947;-55
2022/12/08 04:45:58;;;;;;;;;;;;;;;;;;5065370;28;19924;-56
2022/12/08 04:48:24;;;;;;;;;;;;;;;;;;5064592;28;19924;-56
2022/12/08 04:50:50;;;;;;;;;;;;;;;;;;5064927;28;19925;-57
2022/12/08 04:53:16;;;;;;;;;;;;;;;;;;5065027;28;19939;-56
2022/12/08 04:55:43;;;;;;;;;;;;;;;;;;5065725;28;20285;-56
2022/12/08 04:58:09;;;;;;;;;;;;;;;;;;5068693;28;19959;-55
2022/12/08 05:00:35;;;;;;;;;;;;;;;;;;5068526;28;20001;-56
2022/12/08 05:03:01;;;;;;;;;;;;;;;;;;5067899;28;19936;-55
2022/12/08 05:05:27;;;;;;;;;;;;;;;;;;5069035;28;19974;-56
2022/12/08 05:07:53;;;;;;;;;;;;;;;;;;5068514;28;19924;-55
2022/12/08 05:10:19;;;;;;;;;;;;;;;;;;5068144;28;21682;-55
2022/12/08 05:12:45;;;;;;;;;;;;;;;;;;5067605;28;20031;-56
2022/12/08 05:15:11;;;;;;;;;;;;;;;;;;5068643;28;19924;-55
2022/12/08 05:17:37;;;;;;;;;;;;;;;;;;5067714;28;19932;-55
2022/12/08 05:20:03;;;;;;;;;;;;;;;;;;5068073;28;19924;-56
2022/12/08 05:22:29;;;;;;;;;;;;;;;;;;5068234;28;19925;-55
2022/12/08 05:24:55;;;;;;;;;;;;;;;;;;5068991;28;19929;-56
2022/12/08 05:27:21;;;;;;;;;;;;;;;;;;5068322;28;19950;-55
2022/12/08 05:29:47;;;;;;;;;;;;;;;;;;5068113;28;19928;-53
2022/12/08 05:32:13;;;;;;;;;;;;;;;;;;5068031;28;19982;-57
2022/12/08 05:34:39;;;;;;;;;;;;;;;;;;5068530;28;20155;-55
2022/12/08 05:37:05;;;;;;;;;;;;;;;;;;5068437;28;19935;-56
2022/12/08 05:39:31;;;;;;;;;;;;;;;;;;5067563;28;19924;-53
2022/12/08 05:41:58;;;;;;;;;;;;;;;;;;5068519;28;20332;-56
2022/12/08 05:44:24;;;;;;;;;;;;;;;;;;5068613;28;19978;-55
2022/12/08 05:46:50;;;;;;;;;;;;;;;;;;5067460;28;20320;-55
2022/12/08 05:49:16;;;;;;;;;;;;;;;;;;5068368;28;19970;-56
2022/12/08 05:51:42;;;;;;;;;;;;;;;;;;5068183;28;19932;-53
2022/12/08 05:54:08;;;;;;;;;;;;;;;;;;5067886;28;19947;-56
2022/12/08 05:56:34;;;;;;;;;;;;;;;;;;5067985;28;19925;-55
2022/12/08 05:59:00;;;;;;;;;;;;;;;;;;5068238;28;20011;-56
2022/12/08 06:01:26;;;;;;;;;;;;;;;;;;5067974;28;19924;-55
2022/12/08 06:03:52;;;;;;;;;;;;;;;;;;5066608;28;20281;-57
2022/12/08 06:06:18;;;;;;;;;;;;;;;;;;5068159;28;20384;-56
2022/12/08 06:08:44;;;;;;;;;;;;;;;;;;5065498;28;19932;-56
2022/12/08 06:11:10;;;;;;;;;;;;;;;;;;5068096;28;19926;-57
2022/12/08 06:13:36;;;;;;;;;;;;;;;;;;5068139;28;19931;-57
2022/12/08 06:16:02;;;;;;;;;;;;;;;;;;5068417;28;19929;-56
2022/12/08 06:18:28;;;;;;;;;;;;;;;;;;5067479;28;19931;-53
2022/12/08 06:20:54;;;;;;;;;;;;;;;;;;5068033;28;19999;-56
2022/12/08 06:23:20;;;;;;;;;;;;;;;;;;5067638;28;19925;-56
2022/12/08 06:25:46;;;;;;;;;;;;;;;;;;5067142;28;20586;-56
2022/12/08 06:28:12;;;;;;;;;;;;;;;;;;5061434;28;19924;-56
2022/12/08 06:30:38;;;;;;;;;;;;;;;;;;5066228;28;19971;-57
2022/12/08 06:33:04;;;;;;;;;;;;;;;;;;5065766;28;20404;-56
2022/12/08 06:35:30;;;;;;;;;;;;;;;;;;5065749;28;20043;-57
2022/12/08 06:37:56;;;;;;;;;;;;;;;;;;5067230;28;19995;-57
2022/12/08 06:40:22;;;;;;;;;;;;;;;;;;5067189;28;19929;-57
2022/12/08 06:42:48;;;;;;;;;;;;;;;;;;5063619;28;19924;-56
2022/12/08 06:45:14;;;;;;;;;;;;;;;;;;5052250;28;19975;-55
2022/12/08 06:47:40;;;;;;;;;;;;;;;;;;5055623;28;19986;-57
2022/12/08 06:50:06;;;;;;;;;;;;;;;;;;5054264;28;20358;-58
2022/12/08 06:52:32;;;;;;;;;;;;;;;;;;5065923;28;19924;-59
2022/12/08 06:54:58;;;;;;;;;;;;;;;;;;5067351;28;19951;-58
2022/12/08 06:57:24;;;;;;;;;;;;;;;;;;5066936;28;19928;-58
2022/12/08 06:59:50;;;;;;;;;;;;;;;;;;5066367;28;20033;-56
2022/12/08 07:02:16;;;;;;;;;;;;;;;;;;5066314;28;19931;-59
2022/12/08 07:04:42;;;;;;;;;;;;;;;;;;5066495;28;19932;-57
2022/12/08 07:07:08;;;;;;;;;;;;;;;;;;5067006;28;20459;-57
2022/12/08 07:09:35;;;;;;;;;;;;;;;;;;5066632;28;19924;-57
2022/12/08 07:12:01;;;;;;;;;;;;;;;;;;5066400;28;19924;-58
2022/12/08 07:14:27;;;;;;;;;;;;;;;;;;5067135;28;19929;-57
2022/12/08 07:16:53;;;;;;;;;;;;;;;;;;5066161;28;20301;-56
2022/12/08 07:19:19;;;;;;;;;;;;;;;;;;5066410;28;19978;-58
2022/12/08 07:21:45;;;;;;;;;;;;;;;;;;5066523;28;19936;-56
2022/12/08 07:24:11;;;;;;;;;;;;;;;;;;5066374;28;19920;-57
2022/12/08 07:26:38;;;;;;;;;;;;;;;;;;5066478;28;19924;-57
2022/12/08 07:29:04;;;;;;;;;;;;;;;;;;5063139;28;19932;-57
2022/12/08 07:31:30;;;;;;;;;;;;;;;;;;5065797;28;20390;-57
2022/12/08 07:33:56;;;;;;;;;;;;;;;;;;5067070;28;19928;-57
2022/12/08 07:36:22;;;;;;;;;;;;;;;;;;5066644;28;19967;-57
2022/12/08 07:38:48;;;;;;;;;;;;;;;;;;5066098;28;20014;-57
2022/12/08 07:41:14;;;;;;;;;;;;;;;;;;5066385;28;19935;-54
2022/12/08 07:43:40;;;;;;;;;;;;;;;;;;5065765;28;20035;-58
2022/12/08 07:46:06;;;;;;;;;;;;;;;;;;5066445;28;20642;-55
2022/12/08 07:48:32;;;;;;;;;;;;;;;;;;5065247;28;19932;-57
2022/12/08 07:50:58;;;;;;;;;;;;;;;;;;5066636;28;19960;-57
2022/12/08 07:53:24;;;;;;;;;;;;;;;;;;5066857;28;19983;-57
2022/12/08 07:55:50;;;;;;;;;;;;;;;;;;5066236;28;20586;-58
2022/12/08 07:58:16;;;;;;;;;;;;;;;;;;5066413;28;19999;-58
2022/12/08 08:00:42;;;;;;;;;;;;;;;;;;5065638;28;19932;-57
2022/12/08 08:03:08;;;;;;;;;;;;;;;;;;5065097;28;20297;-57
2022/12/08 08:05:34;;;;;;;;;;;;;;;;;;5064810;28;19928;-57
2022/12/08 08:08:00;;;;;;;;;;;;;;;;;;5066336;28;20438;-57
2022/12/08 08:10:26;;;;;;;;;;;;;;;;;;5066873;28;20401;-57
2022/12/08 08:12:52;;;;;;;;;;;;;;;;;;5066287;28;20019;-55
2022/12/08 08:15:20;;;;;;;;;;;;;;;;;;5066242;28;19924;-57
2022/12/08 08:17:46;;;;;;;;;;;;;;;;;;5065647;28;19929;-58
2022/12/08 08:20:12;;;;;;;;;;;;;;;;;;5065620;28;20342;-56
2022/12/08 08:22:38;;;;;;;;;;;;;;;;;;5065991;28;19924;-57
2022/12/08 08:25:04;;;;;;;;;;;;;;;;;;5066223;28;19951;-56
2022/12/08 08:27:30;;;;;;;;;;;;;;;;;;5062452;28;19975;-57
2022/12/08 08:29:56;;;;;;;;;;;;;;;;;;5065796;28;19967;-57
2022/12/08 08:32:22;;;;;;;;;;;;;;;;;;5065188;28;19977;-57
2022/12/08 08:34:48;;;;;;;;;;;;;;;;;;5065661;28;20327;-57
2022/12/08 08:37:14;;;;;;;;;;;;;;;;;;5065946;28;19924;-57
2022/12/08 08:39:41;;;;;;;;;;;;;;;;;;5064936;28;19924;-57
2022/12/08 08:42:07;;;;;;;;;;;;;;;;;;5065931;28;19936;-57
2022/12/08 08:44:33;;;;;;;;;;;;;;;;;;5066041;28;19924;-57
2022/12/08 08:46:59;;;;;;;;;;;;;;;;;;5065232;28;19924;-58
2022/12/08 08:49:25;;;;;;;;;;;;;;;;;;5065900;28;20362;-55
2022/12/08 08:51:51;;;;;;;;;;;;;;;;;;5065778;28;19971;-57
2022/12/08 08:54:17;;;;;;;;;;;;;;;;;;5065622;28;20374;-57
2022/12/08 08:56:43;;;;;;;;;;;;;;;;;;5065616;28;20345;-57
2022/12/08 08:59:09;;;;;;;;;;;;;;;;;;5065513;28;20382;-57
2022/12/08 09:01:35;;;;;;;;;;;;;;;;;;5065234;28;19928;-58
2022/12/08 09:04:02;;;;;;;;;;;;;;;;;;5065693;28;19955;-57
2022/12/08 09:06:28;;;;;;;;;;;;;;;;;;5066151;28;20432;-57
2022/12/08 09:08:54;;;;;;;;;;;;;;;;;;5065650;28;19931;-57
2022/12/08 09:11:22;;;;;;;;;;;;;;;;;;5065716;28;20340;-57
2022/12/08 09:13:48;;;;;;;;;;;;;;;;;;5065340;28;19993;-57
2022/12/08 09:16:14;;;;;;;;;;;;;;;;;;5064128;28;19924;-57
2022/12/08 09:18:40;;;;;;;;;;;;;;;;;;5065831;28;19971;-57
2022/12/08 09:21:07;;;;;;;;;;;;;;;;;;5065508;28;19944;-58
2022/12/08 09:23:33;;;;;;;;;;;;;;;;;;5065453;28;19924;-57
2022/12/08 09:25:59;;;;;;;;;;;;;;;;;;5065725;28;19929;-57
2022/12/08 09:28:25;;;;;;;;;;;;;;;;;;5063686;28;20603;-57
2022/12/08 09:30:51;;;;;;;;;;;;;;;;;;5065450;28;20449;-56
2022/12/08 09:33:17;;;;;;;;;;;;;;;;;;5064421;28;20024;-57
2022/12/08 09:35:43;;;;;;;;;;;;;;;;;;5064943;28;19928;-57
2022/12/08 09:38:09;;;;;;;;;;;;;;;;;;5065504;28;19931;-57
2022/12/08 09:40:35;;;;;;;;;;;;;;;;;;5064999;28;20369;-58
2022/12/08 09:43:01;;;;;;;;;;;;;;;;;;5068789;28;19924;-56
2022/12/08 09:45:27;;;;;;;;;;;;;;;;;;5069327;28;19925;-57
2022/12/08 09:47:53;;;;;;;;;;;;;;;;;;5067893;28;19981;-56
2022/12/08 09:50:19;;;;;;;;;;;;;;;;;;5069281;28;20410;-55
2022/12/08 09:52:45;;;;;;;;;;;;;;;;;;5068403;28;19931;-56
2022/12/08 09:55:11;;;;;;;;;;;;;;;;;;5068741;28;19925;-57
2022/12/08 09:57:38;;;;;;;;;;;;;;;;;;5068250;28;19986;-57
2022/12/08 10:00:04;;;;;;;;;;;;;;;;;;5068387;28;19924;-58
2022/12/08 10:02:30;;;;;;;;;;;;;;;;;;5067831;28;20317;-57
2022/12/08 10:04:56;;;;;;;;;;;;;;;;;;5068687;28;21796;-56
2022/12/08 10:07:22;;;;;;;;;;;;;;;;;;5068520;28;19960;-57
2022/12/08 10:09:48;;;;;;;;;;;;;;;;;;5068443;28;20072;-57
2022/12/08 10:12:14;;;;;;;;;;;;;;;;;;5068152;28;20538;-57
2022/12/08 10:14:40;;;;;;;;;;;;;;;;;;5067614;28;20023;-57
2022/12/08 10:17:06;;;;;;;;;;;;;;;;;;5067583;28;19999;-57
2022/12/08 10:19:32;;;;;;;;;;;;;;;;;;5068235;28;20273;-56
2022/12/08 10:21:58;;;;;;;;;;;;;;;;;;5068840;28;19924;-57
2022/12/08 10:24:24;;;;;;;;;;;;;;;;;;5068428;28;19925;-57
2022/12/08 10:26:50;;;;;;;;;;;;;;;;;;5066473;28;19931;-57
2022/12/08 10:29:16;;;;;;;;;;;;;;;;;;5068212;28;19924;-57
2022/12/08 10:31:42;;;;;;;;;;;;;;;;;;5066914;28;19931;-57
2022/12/08 10:34:08;;;;;;;;;;;;;;;;;;5067764;28;19970;-56
2022/12/08 10:36:34;;;;;;;;;;;;;;;;;;5068112;28;19925;-56
2022/12/08 10:39:00;;;;;;;;;;;;;;;;;;5067584;28;19995;-57
2022/12/08 10:41:26;;;;;;;;;;;;;;;;;;5068513;28;19925;-56
2022/12/08 10:43:52;;;;;;;;;;;;;;;;;;5067645;28;19925;-57
2022/12/08 10:46:18;;;;;;;;;;;;;;;;;;5067152;28;19952;-57
2022/12/08 10:48:44;;;;;;;;;;;;;;;;;;5068006;28;20355;-56
2022/12/08 10:51:10;;;;;;;;;;;;;;;;;;5066593;28;19925;-58
2022/12/08 10:53:36;;;;;;;;;;;;;;;;;;5066735;28;19924;-56
2022/12/08 10:56:02;;;;;;;;;;;;;;;;;;5067981;28;20415;-58
2022/12/08 10:58:28;;;;;;;;;;;;;;;;;;5067582;28;19928;-57
2022/12/08 11:00:54;;;;;;;;;;;;;;;;;;5067037;28;19931;-58
2022/12/08 11:03:20;;;;;;;;;;;;;;;;;;5067419;28;19925;-57
2022/12/08 11:05:46;;;;;;;;;;;;;;;;;;5066953;28;19924;-56
2022/12/08 11:08:12;;;;;;;;;;;;;;;;;;5067497;28;20346;-57
2022/12/08 11:10:38;;;;;;;;;;;;;;;;;;5066899;28;19928;-57
2022/12/08 11:13:04;;;;;;;;;;;;;;;;;;5067193;28;19965;-56
2022/12/08 11:15:31;;;;;;;;;;;;;;;;;;5067127;28;20362;-57
2022/12/08 11:17:57;;;;;;;;;;;;;;;;;;5066775;28;19952;-57
2022/12/08 11:20:23;;;;;;;;;;;;;;;;;;5067422;28;19964;-57
2022/12/08 11:22:49;;;;;;;;;;;;;;;;;;5062712;28;19939;-55
2022/12/08 11:25:15;;;;;;;;;;;;;;;;;;5067337;28;20348;-56
2022/12/08 11:27:42;;;;;;;;;;;;;;;;;;5062714;28;20323;-57
2022/12/08 11:30:08;;;;;;;;;;;;;;;;;;5067332;28;20253;-57
2022/12/08 11:32:34;;;;;;;;;;;;;;;;;;5066364;28;19964;-57
2022/12/08 11:35:00;;;;;;;;;;;;;;;;;;5066654;28;20405;-57
2022/12/08 11:37:26;;;;;;;;;;;;;;;;;;5066663;28;19929;-57
2022/12/08 11:39:52;;;;;;;;;;;;;;;;;;5063274;28;19930;-58
2022/12/08 11:42:18;;;;;;;;;;;;;;;;;;5066495;28;19936;-57
2022/12/08 11:44:44;;;;;;;;;;;;;;;;;;5066261;28;19924;-58
2022/12/08 11:47:10;;;;;;;;;;;;;;;;;;5065404;28;19931;-57
2022/12/08 11:49:36;;;;;;;;;;;;;;;;;;5066394;28;19938;-56
2022/12/08 11:52:03;;;;;;;;;;;;;;;;;;5066792;28;19932;-57
2022/12/08 11:54:29;;;;;;;;;;;;;;;;;;5066237;28;19924;-57
2022/12/08 11:56:55;;;;;;;;;;;;;;;;;;5063109;28;19929;-56
2022/12/08 11:59:21;;;;;;;;;;;;;;;;;;5065453;28;19924;-57
2022/12/08 12:01:47;;;;;;;;;;;;;;;;;;5065078;28;19932;-56
2022/12/08 12:04:13;;;;;;;;;;;;;;;;;;5066127;28;19932;-57
2022/12/08 12:06:39;;;;;;;;;;;;;;;;;;5064647;28;20293;-58
2022/12/08 12:09:05;;;;;;;;;;;;;;;;;;5065859;28;19934;-56
2022/12/08 12:14:16;;;;;;;;;;;;;;;;;;5065836;28;19951;-58
2022/12/08 12:16:42;;;;;;;;;;;;;;;;;;5061493;28;20565;-58
2022/12/08 12:19:08;;;;;;;;;;;;;;;;;;5060836;28;19975;-57
2022/12/08 12:21:34;;;;;;;;;;;;;;;;;;5058913;28;19935;-57
2022/12/08 12:24:00;;;;;;;;;;;;;;;;;;5059758;28;20383;-56
2022/12/08 12:26:26;;;;;;;;;;;;;;;;;;5059218;28;19925;-57
2022/12/08 12:28:52;;;;;;;;;;;;;;;;;;5061744;28;19974;-57
2022/12/08 12:31:18;;;;;;;;;;;;;;;;;;5063214;28;19929;-57
2022/12/08 12:33:44;;;;;;;;;;;;;;;;;;5059287;28;19925;-57
2022/12/08 12:36:10;;;;;;;;;;;;;;;;;;5058245;28;19928;-57
2022/12/08 12:41:21;;;;;;;;;;;;;;;;;;5060723;28;19925;-57
2022/12/08 12:43:47;;;;;;;;;;;;;;;;;;5059917;28;20378;-57
2022/12/08 12:46:13;;;;;;;;;;;;;;;;;;5061442;28;19955;-57
2022/12/08 12:48:39;;;;;;;;;;;;;;;;;;5060302;28;19985;-55
2022/12/08 12:51:05;;;;;;;;;;;;;;;;;;5065521;28;19924;-55
2022/12/08 12:53:31;;;;;;;;;;;;;;;;;;5064839;28;20429;-58
2022/12/08 12:55:57;;;;;;;;;;;;;;;;;;5066001;28;19932;-57
2022/12/08 12:58:23;;;;;;;;;;;;;;;;;;5065883;28;19925;-57
2022/12/08 13:00:49;;;;;;;;;;;;;;;;;;5064748;28;19982;-57
2022/12/08 13:03:15;;;;;;;;;;;;;;;;;;5065573;28;19929;-57
2022/12/08 13:05:41;;;;;;;;;;;;;;;;;;5065259;28;19924;-57
2022/12/08 13:08:07;;;;;;;;;;;;;;;;;;5065858;28;19931;-56
2022/12/08 13:10:33;;;;;;;;;;;;;;;;;;5065262;28;19924;-56
2022/12/08 13:12:59;;;;;;;;;;;;;;;;;;5065247;28;19921;-56
2022/12/08 13:15:25;;;;;;;;;;;;;;;;;;5065997;28;19966;-57
2022/12/08 13:17:51;;;;;;;;;;;;;;;;;;5067314;28;19985;-57
2022/12/08 13:20:17;;;;;;;;;;;;;;;;;;5069113;28;20421;-58
2022/12/08 13:22:43;;;;;;;;;;;;;;;;;;5066044;28;20431;-58
2022/12/08 13:25:09;;;;;;;;;;;;;;;;;;5058555;28;19921;-57
2022/12/08 13:27:35;;;;;;;;;;;;;;;;;;5065920;28;20401;-57
2022/12/08 13:30:01;;;;;;;;;;;;;;;;;;5064142;28;19931;-59
2022/12/08 13:32:27;;;;;;;;;;;;;;;;;;5064309;28;19931;-57
2022/12/08 13:34:53;;;;;;;;;;;;;;;;;;5066152;28;19947;-57
2022/12/08 13:37:19;;;;;;;;;;;;;;;;;;5060614;28;20389;-58
2022/12/08 13:45:52;;;;;;;;;;;;;;;;;;5056859;28;19919;-58
2022/12/08 13:48:18;;;;;;;;;;;;;;;;;;5054087;28;19978;-57
2022/12/08 13:50:44;;;;;;;;;;;;;;;;;;5062605;28;20500;-54
2022/12/08 13:53:10;;;;;;;;;;;;;;;;;;5062611;28;20178;-55
2022/12/08 13:55:36;;;;;;;;;;;;;;;;;;5053002;28;20394;-54
2022/12/08 13:58:02;;;;;;;;;;;;;;;;;;5056589;28;19931;-56
2022/12/08 14:00:28;;;;;;;;;;;;;;;;;;5055206;28;19924;-55
2022/12/08 14:02:54;;;;;;;;;;;;;;;;;;5062180;28;19925;-54
2022/12/08 14:05:20;;;;;;;;;;;;;;;;;;5062810;28;19938;-55
2022/12/08 14:07:46;;;;;;;;;;;;;;;;;;5057078;28;19998;-55
2022/12/08 14:10:12;;;;;;;;;;;;;;;;;;5056769;28;19991;-55
2022/12/08 14:12:38;;;;;;;;;;;;;;;;;;5065169;28;19934;-54
2022/12/08 14:15:04;;;;;;;;;;;;;;;;;;5053342;28;19925;-54
2022/12/08 14:17:30;;;;;;;;;;;;;;;;;;5060190;28;19925;-54
2022/12/08 14:19:56;;;;;;;;;;;;;;;;;;5059230;28;19943;-55
2022/12/08 14:22:22;;;;;;;;;;;;;;;;;;5068104;28;19924;-54
2022/12/08 14:24:49;;;;;;;;;;;;;;;;;;5067333;28;19932;-54
2022/12/08 14:27:15;;;;;;;;;;;;;;;;;;5067507;28;20483;-54
2022/12/08 14:29:41;;;;;;;;;;;;;;;;;;5067023;28;20372;-53
2022/12/08 14:32:07;;;;;;;;;;;;;;;;;;5082512;28;20586;-54
2022/12/08 14:43:42;;;;;;;;;;;;;;;;;;5059871;28;19931;-57
2022/12/08 15:04:29;;;;;;;;;;;;;;;;;;5062301;28;19920;-57
2022/12/08 15:09:56;;;;;;;;;;;;;;;;;;5063141;28;19939;-56
2022/12/08 15:12:22;;;;;;;;;;;;;;;;;;5063241;28;19929;-57
2022/12/08 15:14:48;;;;;;;;;;;;;;;;;;5062017;28;20019;-55
2022/12/08 15:17:14;;;;;;;;;;;;;;;;;;5062531;28;20003;-56
2022/12/08 15:19:40;;;;;;;;;;;;;;;;;;5062807;28;19936;-56
2022/12/08 15:22:06;;;;;;;;;;;;;;;;;;5061632;28;19936;-56
2022/12/08 15:24:34;;;;;;;;;;;;;;;;;;5064048;28;19929;-56
2022/12/08 15:27:01;;;;;;;;;;;;;;;;;;5059856;28;19933;-57
2022/12/08 15:29:27;;;;;;;;;;;;;;;;;;5064249;28;19972;-56
2022/12/08 15:31:53;;;;;;;;;;;;;;;;;;5059706;28;19987;-55
2022/12/08 15:34:19;;;;;;;;;;;;;;;;;;5063949;28;19928;-56
2022/12/08 15:36:45;;;;;;;;;;;;;;;;;;5056643;28;19928;-57
2022/12/08 15:39:11;;;;;;;;;;;;;;;;;;5063706;28;20515;-56
2022/12/08 15:41:37;;;;;;;;;;;;;;;;;;5058063;28;20047;-57
2022/12/08 15:44:03;;;;;;;;;;;;;;;;;;5064141;28;20373;-57
2022/12/08 15:46:29;;;;;;;;;;;;;;;;;;5055662;28;19932;-55
2022/12/08 15:48:55;;;;;;;;;;;;;;;;;;5064309;28;19928;-56
2022/12/08 15:51:21;;;;;;;;;;;;;;;;;;5062128;28;20293;-54
2022/12/08 15:53:47;;;;;;;;;;;;;;;;;;5064042;28;20633;-55
2022/12/08 15:56:13;;;;;;;;;;;;;;;;;;5060537;28;19928;-55
2022/12/08 15:58:39;;;;;;;;;;;;;;;;;;5062284;28;19921;-56
2022/12/08 16:01:05;;;;;;;;;;;;;;;;;;5058461;28;20255;-56
2022/12/08 16:03:31;;;;;;;;;;;;;;;;;;5063714;28;19928;-57
2022/12/08 16:06:00;;;;;;;;;;;;;;;;;;5059356;28;19921;-56
2022/12/08 16:08:26;;;;;;;;;;;;;;;;;;5059687;28;20654;-57
2022/12/08 16:13:49;;;;;;;;;;;;;;;;;;5059709;28;19929;-55
2022/12/08 16:13:50;;;;;;;;;;;;;;;;;;5058360;28;20011;-56
2022/12/08 16:16:20;;;;;;;;;;;;;;;;;;5058442;28;19932;-56
2022/12/08 16:18:46;;;;;;;;;;;;;;;;;;5061055;28;19982;-56
2022/12/08 16:21:12;;;;;;;;;;;;;;;;;;5061689;28;19936;-56
2022/12/08 16:23:38;;;;;;;;;;;;;;;;;;5062139;28;19928;-57
2022/12/08 16:26:04;;;;;;;;;;;;;;;;;;5061936;28;19925;-56
2022/12/08 16:28:31;;;;;;;;;;;;;;;;;;5059298;28;19929;-56
2022/12/08 16:30:57;;;;;;;;;;;;;;;;;;5058001;28;20011;-57
2022/12/08 16:33:23;;;;;;;;;;;;;;;;;;5060085;28;20362;-57
2022/12/08 16:35:49;;;;;;;;;;;;;;;;;;5062596;28;19981;-55
2022/12/08 16:38:15;;;;;;;;;;;;;;;;;;5064291;28;19924;-54
2022/12/08 16:42:38;;;;;;;;;;;;;;;;;;5058925;28;20293;-57
2022/12/08 16:43:27;;;;;;;;;;;;;;;;;;5062975;28;19970;-57
2022/12/08 16:45:54;;;;;;;;;;;;;;;;;;5055301;28;19981;-56
2022/12/08 16:48:21;;;;;;;;;;;;;;;;;;5060086;28;20011;-56
2022/12/08 16:50:47;;;;;;;;;;;;;;;;;;5061765;28;19939;-58
2022/12/08 16:53:13;;;;;;;;;;;;;;;;;;5064714;28;20325;-56
2022/12/08 16:55:39;;;;;;;;;;;;;;;;;;5068263;28;19930;-58
2022/12/08 16:58:05;;;;;;;;;;;;;;;;;;5068222;28;19925;-56
2022/12/08 17:00:35;;;;;;;;;;;;;;;;;;5068190;28;19927;-57
2022/12/08 17:03:01;;;;;;;;;;;;;;;;;;5068967;28;20011;-58
2022/12/08 17:05:27;;;;;;;;;;;;;;;;;;5065389;28;20066;-57
2022/12/08 17:07:53;;;;;;;;;;;;;;;;;;5066316;28;19929;-57
2022/12/08 17:10:19;;;;;;;;;;;;;;;;;;5065893;28;19932;-56
2022/12/08 17:12:45;;;;;;;;;;;;;;;;;;5065134;28;20387;-57
2022/12/08 17:15:11;;;;;;;;;;;;;;;;;;5063860;28;20654;-57
2022/12/08 17:17:38;;;;;;;;;;;;;;;;;;5061193;28;20114;-58
2022/12/08 17:20:04;;;;;;;;;;;;;;;;;;5060491;28;20602;-58
2022/12/08 17:22:30;;;;;;;;;;;;;;;;;;5058563;28;20023;-57
2022/12/08 17:24:56;;;;;;;;;;;;;;;;;;5060559;28;19928;-58